createdAt,value
2023-06-02T00:02:40.679Z,15.4
2023-06-02T00:17:40.547Z,15.2
2023-06-02T00:32:40.495Z,15.2
2023-06-02T00:47:40.577Z,15.1
2023-06-02T01:02:40.504Z,15.1
2023-06-02T01:17:40.476Z,14.9
2023-06-02T01:32:40.422Z,14.8
2023-06-02T01:47:40.434Z,14.8
2023-06-02T02:02:40.429Z,14.7
2023-06-02T02:17:40.475Z,14.7
2023-06-02T02:32:40.338Z,14.7
2023-06-02T02:47:40.397Z,14.3
2023-06-02T03:02:40.341Z,14.1
2023-06-02T03:17:40.313Z,14
2023-06-02T03:32:40.283Z,14
2023-06-02T03:47:40.331Z,13.8
2023-06-02T04:02:40.231Z,13.7
2023-06-02T04:17:40.250Z,14
2023-06-02T04:32:40.183Z,15
2023-06-02T04:47:40.199Z,16.1
2023-06-02T05:02:40.151Z,16.8
2023-06-02T05:17:40.160Z,17.7
2023-06-02T05:32:40.118Z,20.2
2023-06-02T05:47:40.150Z,22.3
2023-06-02T06:02:40.179Z,23.8
2023-06-02T06:17:40.038Z,26.1
2023-06-02T06:32:39.952Z,27.8
2023-06-02T06:47:40.016Z,28.9
2023-06-02T07:02:39.994Z,29.2
2023-06-02T07:17:39.938Z,30.9
2023-06-02T07:32:39.932Z,32
2023-06-02T07:47:39.904Z,32.1
2023-06-02T08:02:39.865Z,33.5
2023-06-02T08:17:39.846Z,34.7
2023-06-02T08:32:39.753Z,34.9
2023-06-02T08:47:39.791Z,32.9
2023-06-02T09:02:39.685Z,33
2023-06-02T09:17:39.825Z,32.7
2023-06-02T09:32:39.733Z,30.3
2023-06-02T09:47:39.938Z,27.6
2023-06-02T10:02:39.666Z,28.1
2023-06-02T10:17:39.620Z,27.6
2023-06-02T10:32:39.580Z,26.6
2023-06-02T10:47:39.587Z,26.3
2023-06-02T11:02:39.494Z,26.1
2023-06-02T11:17:39.516Z,25.4
2023-06-02T11:32:39.458Z,25
2023-06-02T11:47:39.450Z,25.2
2023-06-02T12:02:39.413Z,25.1
2023-06-02T12:17:39.401Z,24.9
2023-06-02T12:32:39.362Z,25.1
2023-06-02T12:47:39.343Z,26
2023-06-02T13:02:39.471Z,26.4
2023-06-02T13:17:39.309Z,25.9
2023-06-02T13:32:39.211Z,25.9
2023-06-02T13:47:39.297Z,26.7
2023-06-02T14:02:39.249Z,26.1
2023-06-02T14:17:39.185Z,25.1
2023-06-02T14:32:39.145Z,24.8
2023-06-02T14:47:39.172Z,24.1
2023-06-02T15:02:39.031Z,23.4
2023-06-02T15:17:39.128Z,22.6
2023-06-02T15:32:39.001Z,22.1
2023-06-02T15:47:39.009Z,21.2
2023-06-02T16:02:38.968Z,20.1
2023-06-02T16:17:38.975Z,19.5
2023-06-02T16:32:38.961Z,19.3
2023-06-02T16:47:38.910Z,19
2023-06-02T17:02:38.834Z,18.8
2023-06-02T17:17:38.862Z,18.5
2023-06-02T17:32:38.762Z,17.9
2023-06-02T17:47:38.736Z,17.3
2023-06-02T18:02:38.724Z,16.7
2023-06-02T18:17:38.765Z,16.3
2023-06-02T18:32:38.668Z,16.4
2023-06-02T18:47:38.681Z,16.3
2023-06-02T19:02:38.673Z,16.4
2023-06-02T19:17:38.660Z,16.5
2023-06-02T19:32:38.568Z,16.5
2023-06-02T19:47:38.610Z,16.4
2023-06-02T20:02:38.542Z,16.2
2023-06-02T20:17:38.610Z,16.2
2023-06-02T20:32:38.464Z,16
2023-06-02T20:47:38.501Z,15.9
2023-06-02T21:02:38.497Z,15.7
2023-06-02T21:17:38.501Z,15.5
2023-06-02T21:32:38.368Z,15.5
2023-06-02T21:47:38.477Z,15.4
2023-06-02T22:02:38.376Z,15.5
2023-06-02T22:17:38.351Z,15.4
2023-06-02T22:32:38.293Z,15.3
2023-06-02T22:47:38.377Z,15.2
2023-06-02T23:02:38.292Z,14.9
2023-06-02T23:17:38.266Z,14.6
2023-06-02T23:32:38.221Z,14.6
2023-06-02T23:47:38.219Z,14.6
